Time;durP1;ratioP1;P1;durP2;ratioP2;P2;SDS_P1;SDS_P2;PMS_P1;PMS_P2;Temp;Humidity;BMP_temperature;BMP_pressure;BME280_temperature;BME280_humidity;BME280_pressure;Samples;Min_cycle;Max_cycle;Signal;HPM_P1;HPM_P2
2022/05/11 00:01:45;;;;;;;0.20;0.20;;;;;;;15.56;75.00;100626.72;5032186;28;20419;-83
2022/05/11 00:04:12;;;;;;;0.20;0.20;;;;;;;15.51;74.77;100621.44;5033127;28;20018;-83
2022/05/11 00:06:38;;;;;;;0.20;0.20;;;;;;;15.48;74.83;100610.19;5032506;28;20435;-80
2022/05/11 00:09:05;;;;;;;0.20;0.20;;;;;;;15.44;74.75;100604.53;5035373;28;20059;-80
2022/05/11 00:11:31;;;;;;;0.20;0.20;;;;;;;15.33;74.83;100592.41;5035823;28;20415;-82
2022/05/11 00:13:58;;;;;;;0.20;0.20;;;;;;;15.36;75.05;100586.84;5035367;28;20036;-84
2022/05/11 00:16:28;;;;;;;0.20;0.20;;;;;;;15.41;74.40;100592.09;5018410;28;20037;-84
2022/05/11 00:18:56;;;;;;;0.20;0.20;;;;;;;15.35;74.75;100584.44;5036513;28;20040;-84
2022/05/11 00:21:22;;;;;;;0.20;0.20;;;;;;;15.45;74.09;100592.94;5035602;28;20033;-82
2022/05/11 00:23:48;;;;;;;0.20;0.20;;;;;;;15.47;73.85;100586.94;5048127;28;20051;-82
2022/05/11 00:26:15;;;;;;;0.20;0.20;;;;;;;15.46;73.49;100591.75;5038164;28;20033;-84
2022/05/11 00:28:40;;;;;;;0.20;0.20;;;;;;;15.27;73.82;100577.13;5056231;28;20078;-83
2022/05/11 00:31:06;;;;;;;0.20;0.20;;;;;;;15.29;73.80;100580.38;5037973;28;20028;-81
2022/05/11 00:33:32;;;;;;;0.20;0.20;;;;;;;15.31;73.27;100575.19;5038224;28;20175;-84
2022/05/11 00:35:57;;;;;;;0.20;0.20;;;;;;;15.25;73.16;100579.53;5038661;28;20040;-80
2022/05/11 00:38:26;;;;;;;0.20;0.20;;;;;;;15.08;73.38;100578.16;5037822;28;20033;-84
2022/05/11 00:40:54;;;;;;;0.20;0.20;;;;;;;15.14;73.46;100577.41;5056300;28;20035;-83
2022/05/11 00:44:12;;;;;;;0.20;0.20;;;;;;;15.09;72.95;100580.56;5055974;28;20463;-83
2022/05/11 00:46:54;;;;;;;0.20;0.20;;;;;;;15.08;73.14;100578.97;5052465;28;20080;-81
2022/05/11 00:49:38;;;;;;;0.20;0.20;;;;;;;15.19;72.33;100579.88;5038197;28;20478;-79
2022/05/11 00:52:18;;;;;;;0.20;0.20;;;;;;;14.97;72.83;100569.63;5055182;28;20479;-84
2022/05/11 00:55:06;;;;;;;0.20;0.20;;;;;;;15.09;73.34;100583.38;5037831;28;20476;-83
2022/05/11 00:57:38;;;;;;;0.20;0.20;;;;;;;15.12;73.10;100582.59;5037697;28;20422;-83
2022/05/11 01:00:08;;;;;;;0.20;0.20;;;;;;;15.05;73.05;100571.31;5021646;28;20041;-83
2022/05/11 01:02:35;;;;;;;0.20;0.20;;;;;;;15.05;73.35;100576.91;5034676;28;20129;-82
2022/05/11 01:05:04;;;;;;;0.20;0.20;;;;;;;14.96;73.88;100576.41;5037380;28;20029;-82
2022/05/11 01:07:29;;;;;;;0.20;0.20;;;;;;;14.92;74.03;100567.19;5056048;28;20021;-84
2022/05/11 01:09:55;;;;;;;0.20;0.20;;;;;;;14.90;74.46;100569.53;5037212;28;20056;-80
2022/05/11 01:12:26;;;;;;;0.20;0.20;;;;;;;14.85;74.27;100564.28;5037114;28;20040;-81
2022/05/11 01:14:57;;;;;;;0.20;0.20;;;;;;;14.89;73.85;100565.13;5054798;28;20033;-82
2022/05/11 01:17:24;;;;;;;0.20;0.20;;;;;;;14.99;73.66;100561.63;5036933;28;20106;-83
2022/05/11 01:19:50;;;;;;;0.20;0.20;;;;;;;15.02;73.64;100566.50;5037052;28;20037;-83
2022/05/11 01:22:26;;;;;;;0.20;0.20;;;;;;;14.83;74.07;100535.84;5037040;28;20028;-83
2022/05/11 01:24:56;;;;;;;0.20;0.20;;;;;;;14.99;74.26;100563.63;5036947;28;20044;-82
2022/05/11 01:27:25;;;;;;;0.20;0.20;;;;;;;14.98;74.13;100571.25;5055464;28;20032;-84
2022/05/11 01:29:52;;;;;;;0.20;0.20;;;;;;;14.96;74.62;100565.19;5037250;28;20116;-82
2022/05/11 01:32:23;;;;;;;0.20;0.20;;;;;;;15.06;74.03;100566.50;5037108;28;20426;-81
2022/05/11 01:34:56;;;;;;;0.20;0.20;;;;;;;15.11;74.17;100568.97;5037655;28;20035;-81
2022/05/11 01:37:22;;;;;;;0.20;0.20;;;;;;;15.06;74.39;100567.31;5036785;28;20595;-80
2022/05/11 01:39:49;;;;;;;0.20;0.20;;;;;;;15.04;74.15;100574.50;5036666;28;20093;-84
2022/05/11 01:42:14;;;;;;;0.20;0.20;;;;;;;15.07;74.26;100568.13;5036653;28;20028;-80
2022/05/11 01:44:40;;;;;;;0.20;0.20;;;;;;;15.10;73.80;100564.56;5036598;28;20107;-83
2022/05/11 01:47:07;;;;;;;0.20;0.20;;;;;;;15.06;74.04;100564.50;5054500;28;20075;-80
2022/05/11 01:49:32;;;;;;;0.20;0.20;;;;;;;14.98;74.25;100568.44;5054480;28;20025;-84
2022/05/11 01:51:58;;;;;;;0.20;0.20;;;;;;;15.01;74.57;100570.47;5036652;28;20456;-83
2022/05/11 01:54:25;;;;;;;0.20;0.20;;;;;;;15.06;74.17;100566.50;5036606;28;20026;-81
2022/05/11 01:56:50;;;;;;;0.20;0.20;;;;;;;14.91;74.75;100565.53;5036360;28;20033;-81
2022/05/11 01:59:16;;;;;;;0.20;0.20;;;;;;;14.89;74.86;100570.72;5036276;28;20040;-81
2022/05/11 02:01:42;;;;;;;0.20;0.20;;;;;;;14.63;74.67;100544.41;5036201;28;20127;-84
2022/05/11 02:07:49;;;;;;;0.20;0.20;;;;;;;14.71;74.81;100572.53;5054360;28;20104;-81
2022/05/11 02:09:41;;;;;;;0.20;0.20;;;;;;;14.57;76.21;100587.94;5054639;28;20379;-83
2022/05/11 02:12:11;;;;;;;0.20;0.20;;;;;;;14.50;75.33;100596.25;5019884;28;20041;-83
2022/05/11 02:14:39;;;;;;;0.20;0.20;;;;;;;14.51;75.37;100592.28;5036067;28;20028;-80
2022/05/11 02:17:05;;;;;;;0.20;0.20;;;;;;;14.48;75.50;100598.63;5036373;28;20033;-82
2022/05/11 02:19:31;;;;;;;0.20;0.20;;;;;;;14.46;75.08;100600.16;5053934;28;20076;-83
2022/05/11 02:21:57;;;;;;;0.20;0.20;;;;;;;14.44;75.27;100594.94;5036002;28;20056;-82
2022/05/11 02:24:23;;;;;;;0.20;0.20;;;;;;;14.18;75.37;100562.19;5035600;28;20045;-81
2022/05/11 02:26:48;;;;;;;0.20;0.20;;;;;;;14.33;76.35;100594.00;5035919;28;20031;-82
2022/05/11 02:29:14;;;;;;;0.20;0.20;;;;;;;14.38;76.12;100597.28;5035156;28;20033;-83
2022/05/11 02:31:39;;;;;;;0.20;0.20;;;;;;;14.47;75.53;100597.00;5036369;28;20057;-83
2022/05/11 02:34:06;;;;;;;0.20;0.20;;;;;;;14.43;75.85;100607.31;5036066;28;20474;-84
2022/05/11 02:36:34;;;;;;;0.20;0.20;;;;;;;14.42;75.70;100606.50;5036113;28;20059;-84
2022/05/11 02:39:00;;;;;;;0.20;0.20;;;;;;;14.34;75.87;100604.00;5053332;28;20025;-85
2022/05/11 02:41:26;;;;;;;0.20;0.20;;;;;;;14.32;76.15;100606.34;5036135;28;20025;-84
2022/05/11 02:43:52;;;;;;;0.20;0.20;;;;;;;14.22;76.64;100595.81;5035873;28;20492;-85
2022/05/11 02:46:17;;;;;;;0.20;0.20;;;;;;;14.22;77.65;100596.66;5035887;28;20482;-82
2022/05/11 02:48:45;;;;;;;0.20;0.20;;;;;;;14.29;78.44;100609.94;5035631;28;20037;-82
2022/05/11 02:51:11;;;;;;;0.20;0.20;;;;;;;14.31;78.35;100602.75;5035566;28;20036;-84
2022/05/11 02:53:36;;;;;;;0.20;0.20;;;;;;;14.36;77.45;100602.44;5035518;28;20029;-82
2022/05/11 02:56:02;;;;;;;0.20;0.20;;;;;;;14.39;76.01;100612.09;5035423;28;20033;-80
2022/05/11 02:58:34;;;;;;;0.20;0.20;;;;;;;14.40;76.29;100613.69;5035501;28;20033;-82
2022/05/11 03:01:03;;;;;;;0.20;0.20;;;;;;;14.37;76.05;100609.63;5053581;28;20055;-82
2022/05/11 03:03:35;;;;;;;0.20;0.20;;;;;;;14.38;75.70;100610.44;5035628;28;20087;-84
2022/05/11 03:06:05;;;;;;;0.20;0.20;;;;;;;14.38;74.95;100607.63;5035474;28;20040;-81
2022/05/11 03:08:31;;;;;;;0.20;0.20;;;;;;;14.28;75.59;100611.13;5035388;28;20029;-82
2022/05/11 03:10:57;;;;;;;0.20;0.20;;;;;;;14.21;76.04;100622.19;5035818;28;20379;-82
2022/05/11 03:13:23;;;;;;;0.20;0.20;;;;;;;14.18;75.72;100614.56;5035575;28;20037;-84
2022/05/11 03:15:48;;;;;;;0.20;0.20;;;;;;;14.15;76.46;100608.53;5035810;28;20430;-85
2022/05/11 03:18:14;;;;;;;0.20;0.20;;;;;;;14.16;76.23;100607.34;5035306;28;20040;-83
2022/05/11 03:20:40;;;;;;;0.20;0.20;;;;;;;14.27;76.72;100615.09;5035809;28;20029;-81
2022/05/11 03:23:06;;;;;;;0.20;0.20;;;;;;;14.28;76.48;100613.91;5034946;28;20478;-81
2022/05/11 03:25:31;;;;;;;0.20;0.20;;;;;;;14.29;76.50;100621.94;5035378;28;20033;-83
2022/05/11 03:27:57;;;;;;;0.20;0.20;;;;;;;14.29;76.65;100618.31;5035300;28;20029;-82
2022/05/11 03:30:23;;;;;;;0.20;0.20;;;;;;;14.19;77.37;100627.38;5036106;28;20029;-81
2022/05/11 03:35:33;;;;;;;0.20;0.20;;;;;;;14.24;77.68;100629.84;5038349;28;20091;-79
2022/05/11 03:37:59;;;;;;;0.20;0.20;;;;;;;14.23;77.93;100636.63;5035258;28;20037;-82
2022/05/11 03:40:25;;;;;;;0.20;0.20;;;;;;;14.21;78.11;100630.59;5053295;28;20099;-80
2022/05/11 03:42:51;;;;;;;0.20;0.20;;;;;;;14.19;77.89;100641.38;5039254;28;20037;-82
2022/05/11 03:45:17;;;;;;;0.20;0.20;;;;;;;14.09;77.62;100623.22;5056985;28;20455;-79
2022/05/11 03:47:45;;;;;;;0.20;0.20;;;;;;;14.11;77.97;100634.84;5039298;28;20479;-82
2022/05/11 03:50:11;;;;;;;0.20;0.20;;;;;;;14.14;78.18;100640.50;5038819;28;20021;-80
2022/05/11 03:52:37;;;;;;;0.20;0.20;;;;;;;14.00;78.17;100631.88;5022339;28;20100;-82
2022/05/11 03:55:04;;;;;;;0.20;0.20;;;;;;;14.08;78.36;100639.19;5039168;28;20467;-80
2022/05/11 03:57:32;;;;;;;0.20;0.20;;;;;;;14.09;78.22;100652.00;5038849;28;20043;-83
2022/05/11 03:59:57;;;;;;;0.20;0.20;;;;;;;14.05;78.35;100655.91;5056775;28;20032;-82
2022/05/11 04:02:23;;;;;;;0.20;0.20;;;;;;;14.13;78.29;100647.28;5038877;28;20033;-83
2022/05/11 04:04:48;;;;;;;0.20;0.20;;;;;;;14.23;77.12;100645.03;5038708;28;20360;-82
2022/05/11 04:07:14;;;;;;;0.20;0.20;;;;;;;14.30;76.89;100634.75;5039497;28;20044;-79
2022/05/11 04:09:39;;;;;;;0.20;0.20;;;;;;;14.38;77.00;100646.84;5039974;28;20025;-79
2022/05/11 04:12:06;;;;;;;0.20;0.20;;;;;;;14.41;76.76;100638.50;5023211;28;20033;-80
2022/05/11 04:14:32;;;;;;;0.20;0.20;;;;;;;14.51;75.98;100644.66;5038357;28;20032;-80
2022/05/11 04:16:59;;;;;;;0.20;0.20;;;;;;;14.66;75.89;100650.09;5057995;28;20035;-79
2022/05/11 04:19:29;;;;;;;0.20;0.20;;;;;;;14.83;74.26;100653.50;5039623;28;20491;-81
2022/05/11 04:21:55;;;;;;;0.20;0.20;;;;;;;14.97;74.38;100641.66;5038580;28;20052;-82
2022/05/11 04:24:21;;;;;;;0.20;0.20;;;;;;;15.33;73.59;100646.47;5034784;28;20049;-79
2022/05/11 04:26:49;;;;;;;0.20;0.20;;;;;;;15.69;72.30;100644.06;5034837;28;20434;-83
2022/05/11 04:29:15;;;;;;;0.20;0.20;;;;;;;16.07;70.65;100642.78;5034739;28;20029;-83
2022/05/11 04:31:41;;;;;;;0.20;0.20;;;;;;;16.48;69.33;100656.72;5034750;28;20052;-82
2022/05/11 04:34:07;;;;;;;0.20;0.20;;;;;;;16.88;68.09;100647.34;5035963;28;20460;-82
2022/05/11 04:36:32;;;;;;;0.20;0.20;;;;;;;17.26;65.60;100650.72;5034622;28;20075;-80
2022/05/11 04:38:58;;;;;;;0.20;0.20;;;;;;;17.71;64.28;100659.63;5034601;28;20038;-81
2022/05/11 04:41:25;;;;;;;0.20;0.20;;;;;;;17.96;62.89;100665.31;5035811;28;20021;-78
2022/05/11 04:43:51;;;;;;;0.20;0.20;;;;;;;18.32;62.20;100669.75;5034813;28;20096;-81
2022/05/11 04:46:16;;;;;;;0.20;0.20;;;;;;;18.74;60.27;100667.25;5034406;28;20540;-80
2022/05/11 04:48:45;;;;;;;0.20;0.20;;;;;;;19.15;58.34;100680.81;5034605;28;20045;-81
2022/05/11 04:51:14;;;;;;;0.20;0.20;;;;;;;19.51;57.37;100678.63;5034198;28;20025;-77
2022/05/11 04:53:40;;;;;;;0.20;0.20;;;;;;;19.86;56.10;100675.59;5033526;28;20026;-80
2022/05/11 04:56:05;;;;;;;0.20;0.20;;;;;;;20.09;54.95;100669.38;5034327;28;20040;-81
2022/05/11 04:58:31;;;;;;;0.20;0.20;;;;;;;20.32;53.91;100674.41;5033997;28;20396;-80
2022/05/11 05:00:57;;;;;;;0.20;0.20;;;;;;;20.63;53.51;100681.00;5034264;28;20120;-81
2022/05/11 05:03:23;;;;;;;0.20;0.20;;;;;;;21.06;52.78;100688.22;5033998;28;20029;-79
2022/05/11 05:05:49;;;;;;;0.20;0.20;;;;;;;21.34;51.29;100687.06;5034247;28;20041;-80
2022/05/11 05:08:14;;;;;;;0.20;0.20;;;;;;;21.68;50.87;100681.34;5034468;28;20472;-80
2022/05/11 05:10:41;;;;;;;0.20;0.20;;;;;;;21.94;50.61;100683.38;5033906;28;20041;-81
2022/05/11 05:13:10;;;;;;;0.20;0.20;;;;;;;22.31;49.36;100684.38;5033721;28;20026;-80
2022/05/11 05:15:37;;;;;;;0.20;0.20;;;;;;;22.52;48.66;100693.75;5035588;28;20045;-79
2022/05/11 05:18:05;;;;;;;0.20;0.20;;;;;;;22.75;47.94;100676.72;5034168;28;20041;-81
2022/05/11 05:20:31;;;;;;;0.20;0.20;;;;;;;22.87;46.50;100706.47;5033873;28;20084;-78
2022/05/11 05:22:59;;;;;;;0.20;0.20;;;;;;;22.57;46.69;100691.22;5039166;28;20080;-78
2022/05/11 05:25:25;;;;;;;0.20;0.20;;;;;;;22.59;46.15;100696.47;5037313;28;20079;-80
2022/05/11 05:27:52;;;;;;;0.20;0.20;;;;;;;22.17;47.71;100704.50;5037143;28;20314;-80
2022/05/11 05:33:03;;;;;;;0.20;0.20;;;;;;;21.32;50.72;100709.34;5054601;28;20124;-81
2022/05/11 05:35:29;;;;;;;0.20;0.20;;;;;;;21.10;51.51;100692.59;5036943;28;20400;-81
2022/05/11 05:37:54;;;;;;;0.20;0.20;;;;;;;21.77;48.27;100718.41;5036619;28;20033;-81
2022/05/11 05:40:20;;;;;;;0.20;0.20;;;;;;;21.87;47.84;100706.13;5036619;28;20025;-80
2022/05/11 05:42:45;;;;;;;0.10;0.10;;;;;;;21.76;46.94;100711.16;5036641;28;20036;-82
2022/05/11 05:45:11;;;;;;;0.20;0.20;;;;;;;22.22;47.89;100712.50;5036742;28;20613;-82
2022/05/11 05:47:37;;;;;;;0.20;0.20;;;;;;;22.98;46.40;100719.25;5054251;28;20029;-80
2022/05/11 05:50:04;;;;;;;0.20;0.20;;;;;;;23.00;45.28;100730.94;5036587;28;20025;-80
2022/05/11 05:52:29;;;;;;;0.20;0.20;;;;;;;23.17;44.48;100728.19;5054020;28;20028;-78
2022/05/11 05:54:56;;;;;;;0.20;0.20;;;;;;;22.71;44.51;100721.38;5036346;28;20029;-79
2022/05/11 05:57:23;;;;;;;0.20;0.20;;;;;;;23.30;43.33;100723.47;5054163;28;20025;-79
2022/05/11 05:59:49;;;;;;;0.10;0.10;;;;;;;23.95;42.57;100712.31;5036190;28;20035;-80
2022/05/11 06:02:16;;;;;;;0.20;0.20;;;;;;;23.84;43.46;100717.44;5035883;28;20033;-79
2022/05/11 06:04:44;;;;;;;0.17;0.17;;;;;;;24.29;41.63;100720.44;5036299;28;20123;-80
2022/05/11 06:07:11;;;;;;;0.10;0.10;;;;;;;25.05;40.67;100717.19;5036215;28;20487;-81
2022/05/11 06:09:38;;;;;;;0.13;0.13;;;;;;;25.69;39.11;100725.13;5035769;28;20029;-79
2022/05/11 06:12:08;;;;;;;0.10;0.10;;;;;;;25.63;39.27;100729.81;5054092;28;20088;-82
2022/05/11 06:14:34;;;;;;;0.20;0.20;;;;;;;25.30;39.25;100732.78;5053456;28;20036;-79
2022/05/11 06:17:00;;;;;;;0.20;0.20;;;;;;;24.63;40.09;100739.09;5053246;28;20032;-80
2022/05/11 06:19:27;;;;;;;0.20;0.20;;;;;;;24.39;40.45;100732.78;5035764;28;20040;-79
2022/05/11 06:21:53;;;;;;;0.20;0.20;;;;;;;24.52;40.90;100725.16;5053230;28;20088;-80
2022/05/11 06:24:18;;;;;;;0.20;0.20;;;;;;;23.75;41.60;100740.75;5031755;28;20052;-79
2022/05/11 06:26:45;;;;;;;0.20;0.20;;;;;;;23.29;42.03;100744.59;5032987;28;20029;-79
2022/05/11 06:29:10;;;;;;;0.15;0.15;;;;;;;22.56;45.51;100737.03;5032025;28;20056;-79
2022/05/11 06:31:36;;;;;;;0.13;0.13;;;;;;;23.02;43.49;100741.88;5031852;28;20028;-81
2022/05/11 06:34:02;;;;;;;0.10;0.10;;;;;;;23.37;43.09;100746.03;5031753;28;20044;-81
2022/05/11 06:36:29;;;;;;;0.15;0.15;;;;;;;23.77;43.18;100754.56;5031464;28;20141;-79
2022/05/11 06:38:56;;;;;;;0.13;0.13;;;;;;;24.59;40.51;100746.91;5031830;28;20025;-79
2022/05/11 06:41:28;;;;;;;0.10;0.10;;;;;;;25.06;39.52;100738.75;5032605;28;20033;-81
2022/05/11 06:43:54;;;;;;;0.10;0.10;;;;;;;25.38;38.78;100748.44;5031636;28;20025;-80
2022/05/11 06:46:21;;;;;;;0.10;0.10;;;;;;;26.18;36.79;100744.78;5033217;28;20254;-81
2022/05/11 06:48:47;;;;;;;0.10;0.10;;;;;;;26.49;36.95;100748.66;5032919;28;20120;-81
2022/05/11 06:51:13;;;;;;;0.20;0.20;;;;;;;26.91;36.47;100751.28;5015886;28;20056;-80
2022/05/11 07:02:06;;;;;;;0.10;0.10;;;;;;;26.96;35.81;100741.34;5024256;28;20089;-81
2022/05/11 07:04:40;;;;;;;0.10;0.10;;;;;;;25.93;37.94;100743.53;5031688;28;20439;-80
2022/05/11 07:07:06;;;;;;;0.10;0.10;;;;;;;26.21;37.34;100749.59;5031686;28;20026;-80
2022/05/11 07:09:33;;;;;;;0.20;0.20;;;;;;;26.75;36.58;100755.09;5032430;28;20486;-81
2022/05/11 07:14:50;;;;;;;0.10;0.10;;;;;;;25.58;38.70;100746.22;5033386;28;20136;-81
2022/05/11 07:17:33;;;;;;;0.10;0.10;;;;;;;25.91;37.84;100745.25;5036488;28;20082;-80
2022/05/11 07:20:05;;;;;;;0.10;0.10;;;;;;;26.01;37.19;100747.75;5035646;28;20033;-79
2022/05/11 07:22:31;;;;;;;0.20;0.20;;;;;;;25.75;38.10;100734.75;5036320;28;20083;-79
2022/05/11 07:24:56;;;;;;;0.10;0.10;;;;;;;26.07;37.09;100748.78;5038840;28;20040;-81
2022/05/11 07:27:22;;;;;;;0.10;0.10;;;;;;;26.74;36.59;100741.28;5039035;28;20033;-78
2022/05/11 07:29:52;;;;;;;0.10;0.10;;;;;;;26.32;37.29;100739.41;5039452;28;20029;-80
2022/05/11 07:32:18;;;;;;;0.10;0.10;;;;;;;26.19;37.51;100735.78;5056693;28;20025;-79
2022/05/11 07:34:44;;;;;;;0.20;0.20;;;;;;;26.57;36.64;100735.72;5039499;28;20035;-79
2022/05/11 07:37:10;;;;;;;0.10;0.10;;;;;;;25.90;37.80;100735.91;5039601;28;20475;-80
2022/05/11 07:39:36;;;;;;;0.10;0.10;;;;;;;27.18;35.90;100735.69;5038678;28;20139;-80
2022/05/11 07:42:01;;;;;;;0.10;0.10;;;;;;;27.25;35.16;100729.69;5038739;28;20025;-80
2022/05/11 07:44:27;;;;;;;0.10;0.10;;;;;;;27.39;34.79;100734.88;5038503;28;20418;-79
2022/05/11 07:46:53;;;;;;;0.10;0.10;;;;;;;27.82;34.40;100745.47;5038541;28;20025;-80
2022/05/11 07:49:19;;;;;;;0.10;0.10;;;;;;;28.62;33.26;100743.88;5038240;28;20047;-81
2022/05/11 07:51:46;;;;;;;0.10;0.10;;;;;;;28.17;33.65;100742.44;5038098;28;20031;-80
2022/05/11 07:54:13;;;;;;;0.10;0.10;;;;;;;28.18;33.61;100741.97;5056482;28;20029;-80
2022/05/11 08:02:08;;;;;;;0.10;0.10;;;;;;;27.73;34.64;100733.19;5056531;28;20452;-81
2022/05/11 08:04:34;;;;;;;0.20;0.20;;;;;;;27.67;34.04;100736.63;5056418;28;20056;-82
2022/05/11 08:07:00;;;;;;;0.20;0.20;;;;;;;27.85;34.10;100749.44;5021749;28;20098;-80
2022/05/11 08:09:27;;;;;;;0.10;0.10;;;;;;;28.36;33.33;100743.31;5037966;28;20025;-79
2022/05/11 08:11:55;;;;;;;0.20;0.20;;;;;;;28.32;33.36;100754.09;5038009;28;20125;-80
2022/05/11 08:14:21;;;;;;;0.20;0.20;;;;;;;27.99;34.67;100751.75;5037839;28;20132;-80
2022/05/11 08:16:52;;;;;;;0.10;0.10;;;;;;;27.91;35.05;100748.38;5037793;28;20032;-78
2022/05/11 08:19:19;;;;;;;0.10;0.10;;;;;;;27.56;35.79;100744.03;5038100;28;20464;-79
2022/05/11 08:21:46;;;;;;;0.10;0.10;;;;;;;27.11;36.27;100737.53;5055689;28;20029;-80
2022/05/11 08:24:13;;;;;;;0.10;0.10;;;;;;;26.87;37.20;100742.06;5055447;28;20053;-80
2022/05/11 08:26:40;;;;;;;0.10;0.10;;;;;;;27.04;36.65;100743.47;5037057;28;20098;-79
2022/05/11 08:29:07;;;;;;;0.10;0.10;;;;;;;27.97;35.52;100748.56;5037141;28;20422;-81
2022/05/11 08:34:19;;;;;;;0.10;0.10;;;;;;;27.61;35.64;100752.00;5056021;28;20044;-80
2022/05/11 08:36:45;;;;;;;0.15;0.15;;;;;;;28.87;33.16;100749.31;5055467;28;20159;-80
2022/05/11 08:39:14;;;;;;;0.20;0.20;;;;;;;29.56;32.42;100750.72;5037518;28;20039;-80
2022/05/11 08:41:49;;;;;;;0.10;0.10;;;;;;;29.54;32.47;100750.41;5037293;28;20503;-78
2022/05/11 08:44:18;;;;;;;0.10;0.10;;;;;;;29.14;32.52;100751.41;5055160;28;20021;-80
2022/05/11 08:46:57;;;;;;;0.10;0.10;;;;;;;29.77;31.43;100734.56;5037263;28;20021;-79
2022/05/11 08:49:43;;;;;;;0.10;0.10;;;;;;;29.30;32.75;100760.97;5037750;28;20029;-82
2022/05/11 08:52:40;;;;;;;0.10;0.10;;;;;;;29.96;31.17;100749.66;5037631;28;20025;-80
2022/05/11 08:55:14;;;;;;;0.10;0.10;;;;;;;30.21;30.96;100755.00;5037916;28;20468;-81
2022/05/11 08:57:41;;;;;;;0.10;0.10;;;;;;;29.98;31.00;100756.50;5037124;28;20033;-80
2022/05/11 09:00:13;;;;;;;0.10;0.10;;;;;;;29.61;31.99;100741.47;5021067;28;20056;-79
2022/05/11 09:02:54;;;;;;;0.10;0.10;;;;;;;30.27;30.39;100753.06;5037422;28;20095;-79
2022/05/11 09:05:28;;;;;;;0.10;0.10;;;;;;;29.93;30.99;100750.63;5036838;28;20064;-79
2022/05/11 09:07:54;;;;;;;0.10;0.10;;;;;;;29.63;30.89;100759.00;5055006;28;20049;-79
2022/05/11 09:10:30;;;;;;;0.10;0.10;;;;;;;28.77;33.38;100764.09;5036759;28;20036;-81
2022/05/11 09:13:02;;;;;;;0.10;0.10;;;;;;;29.02;32.25;100752.34;5055049;28;20029;-79
2022/05/11 09:15:46;;;;;;;0.10;0.10;;;;;;;28.09;34.93;100756.25;5037159;28;20034;-81
2022/05/11 09:18:12;;;;;;;0.10;0.10;;;;;;;28.08;35.08;100756.72;5036785;28;20057;-79
2022/05/11 09:20:46;;;;;;;0.10;0.10;;;;;;;29.17;33.04;100764.75;5036651;28;20072;-79
2022/05/11 09:23:12;;;;;;;0.10;0.10;;;;;;;29.07;33.70;100768.91;5036522;28;20041;-78
2022/05/11 09:26:00;;;;;;;0.10;0.10;;;;;;;28.91;32.67;100760.59;5036731;28;20112;-80
2022/05/11 09:28:28;;;;;;;0.10;0.10;;;;;;;29.58;32.18;100753.91;5021866;28;20041;-79
2022/05/11 09:31:05;;;;;;;0.10;0.10;;;;;;;29.62;32.62;100763.16;5054223;28;20025;-79
2022/05/11 09:33:40;;;;;;;0.10;0.10;;;;;;;29.21;32.87;100759.69;5054422;28;20029;-79
2022/05/11 09:36:07;;;;;;;0.10;0.10;;;;;;;28.93;33.69;100763.78;5036583;28;20091;-78
2022/05/11 09:38:38;;;;;;;0.10;0.10;;;;;;;29.75;33.11;100769.47;5036204;28;20028;-78
2022/05/11 09:41:19;;;;;;;0.10;0.10;;;;;;;30.23;31.21;100771.72;5036550;28;20028;-78
2022/05/11 09:43:47;;;;;;;0.10;0.10;;;;;;;30.45;31.21;100759.97;5036625;28;20375;-78
2022/05/11 09:46:21;;;;;;;0.10;0.10;;;;;;;29.54;32.23;100773.34;5036662;28;20036;-78
2022/05/11 09:49:06;;;;;;;0.10;0.10;;;;;;;29.52;31.99;100778.75;5036772;28;20029;-77
2022/05/11 09:51:48;;;;;;;0.15;0.15;;;;;;;29.26;33.00;100757.44;5036311;28;20086;-78
2022/05/11 09:54:38;;;;;;;0.10;0.10;;;;;;;29.51;32.15;100774.31;5054179;28;20383;-79
2022/05/11 09:57:11;;;;;;;0.10;0.10;;;;;;;29.15;34.30;100775.13;5036126;28;20120;-80
2022/05/11 09:59:49;;;;;;;;;;;;;;;29.39;33.25;100783.84;5036860;28;20418;-79
2022/05/11 10:02:34;;;;;;;0.10;0.10;;;;;;;29.71;32.87;100783.19;5035989;28;20003;-78
2022/05/11 10:05:25;;;;;;;0.10;0.10;;;;;;;28.85;34.83;100773.94;5053975;28;20017;-80
2022/05/11 10:08:17;;;;;;;0.10;0.10;;;;;;;28.08;37.17;100782.47;5024182;28;20036;-78
2022/05/11 10:11:19;;;;;;;0.10;0.10;;;;;;;27.64;35.54;100757.56;5054341;28;20029;-78
2022/05/11 10:21:50;;;;;;;0.10;0.10;;;;;;;28.12;35.74;100774.50;5035611;28;20036;-79
2022/05/11 10:22:29;;;;;;;0.10;0.10;;;;;;;28.41;34.80;100779.91;5053912;28;20067;-80
2022/05/11 10:25:24;;;;;;;0.10;0.10;;;;;;;27.73;36.68;100767.50;5035957;28;20041;-78
2022/05/11 10:28:05;;;;;;;0.10;0.10;;;;;;;28.25;36.22;100778.06;5035675;28;20036;-80
2022/05/11 10:31:06;;;;;;;0.10;0.10;;;;;;;27.85;36.28;100767.41;5035463;28;20083;-78
2022/05/11 10:33:47;;;;;;;0.10;0.10;;;;;;;28.01;36.40;100757.78;5035412;28;20025;-78
2022/05/11 10:36:43;;;;;;;0.10;0.10;;;;;;;28.10;36.42;100772.13;5035930;28;20029;-78
2022/05/11 10:39:23;;;;;;;0.10;0.10;;;;;;;28.66;36.15;100778.88;5054155;28;20029;-80
2022/05/11 10:42:06;;;;;;;0.10;0.10;;;;;;;28.06;36.59;100782.91;5035818;28;20036;-78
2022/05/11 10:44:57;;;;;;;0.10;0.10;;;;;;;28.87;34.66;100777.13;5053948;28;20040;-78
2022/05/11 10:47:26;;;;;;;0.10;0.10;;;;;;;28.26;36.04;100773.16;5019095;28;20041;-78
2022/05/11 10:49:57;;;;;;;0.10;0.10;;;;;;;28.70;35.31;100777.41;5034650;28;20029;-78
2022/05/11 10:53:02;;;;;;;0.10;0.10;;;;;;;28.04;37.14;100768.28;5052785;28;20051;-79
2022/05/11 10:55:50;;;;;;;0.10;0.10;;;;;;;28.35;36.02;100771.16;5020746;28;20037;-80
2022/05/11 10:58:40;;;;;;;0.10;0.10;;;;;;;27.66;37.08;100759.97;5034156;28;20041;-76
2022/05/11 11:01:10;;;;;;;0.10;0.10;;;;;;;27.81;36.24;100763.09;5035876;28;20052;-77
2022/05/11 11:03:58;;;;;;;0.10;0.10;;;;;;;27.16;38.00;100756.13;5035624;28;20079;-78
2022/05/11 11:09:52;;;;;;;0.10;0.10;;;;;;;27.65;38.30;100759.19;5052924;28;20047;-76
2022/05/11 11:12:30;;;;;;;0.10;0.10;;;;;;;27.04;38.27;100745.53;5034997;28;20035;-76
2022/05/11 11:15:02;;;;;;;0.10;0.10;;;;;;;27.58;36.84;100759.44;5035054;28;20140;-78
2022/05/11 11:17:31;;;;;;;0.10;0.10;;;;;;;28.27;37.42;100771.88;5034613;28;20028;-76
2022/05/11 11:20:03;;;;;;;0.10;0.10;;;;;;;27.88;37.99;100743.59;5019014;28;20032;-76
2022/05/11 11:23:01;;;;;;;0.10;0.10;;;;;;;27.78;36.19;100761.16;5053033;28;20033;-77
2022/05/11 11:25:41;;;;;;;0.10;0.10;;;;;;;27.76;35.89;100758.00;5052989;28;20114;-78
2022/05/11 11:28:15;;;;;;;0.10;0.10;;;;;;;27.21;38.14;100757.59;5034789;28;20021;-76
2022/05/11 11:31:03;;;;;;;0.10;0.10;;;;;;;27.80;38.02;100758.63;5034848;28;20454;-76
2022/05/11 11:33:30;;;;;;;0.10;0.10;;;;;;;27.40;34.92;100730.75;5035548;28;20033;-77
2022/05/11 11:36:21;;;;;;;0.10;0.10;;;;;;;27.08;35.28;100757.66;5052851;28;20025;-77
2022/05/11 11:38:49;;;;;;;0.10;0.10;;;;;;;27.92;32.82;100752.03;5033793;28;20040;-77
2022/05/11 11:41:22;;;;;;;0.10;0.10;;;;;;;28.18;33.20;100756.28;5052438;28;20167;-76
2022/05/11 11:43:56;;;;;;;0.10;0.10;;;;;;;27.77;33.50;100726.06;5035401;28;20029;-78
2022/05/11 11:46:41;;;;;;;0.20;0.20;;;;;;;28.66;33.39;100753.91;5034872;28;20403;-78
2022/05/11 11:49:14;;;;;;;0.10;0.10;;;;;;;27.72;35.81;100743.84;5034461;28;20025;-76
2022/05/11 11:51:56;;;;;;;0.10;0.10;;;;;;;27.90;36.73;100743.91;5034366;28;20032;-75
2022/05/11 11:54:37;;;;;;;0.10;0.10;;;;;;;28.01;35.60;100746.34;5035316;28;20053;-78
2022/05/11 11:57:25;;;;;;;0.15;0.15;;;;;;;28.17;33.63;100746.09;5034675;28;20077;-76
2022/05/11 12:00:05;;;;;;;0.10;0.10;;;;;;;28.44;34.23;100747.47;5034702;28;20021;-76
2022/05/11 12:02:42;;;;;;;0.10;0.10;;;;;;;27.65;35.28;100742.03;5036914;28;20032;-76
2022/05/11 12:05:33;;;;;;;0.10;0.10;;;;;;;27.66;35.95;100726.47;5039165;28;20031;-76
2022/05/11 12:16:53;;;;;;;0.10;0.10;;;;;;;26.97;38.35;100732.31;4984698;28;20046;-77
2022/05/11 12:19:20;;;;;;;0.10;0.10;;;;;;;27.38;38.46;100733.28;5038174;28;20029;-77
2022/05/11 12:21:59;;;;;;;0.10;0.10;;;;;;;27.14;39.81;100730.88;5056061;28;20033;-75
2022/05/11 12:24:33;;;;;;;0.10;0.10;;;;;;;26.65;38.13;100727.75;5055946;28;20102;-77
2022/05/11 12:27:03;;;;;;;0.10;0.10;;;;;;;26.52;39.54;100724.91;5056013;28;20021;-76